createdAt,value
2018-07-29T00:01:07.500Z,91.20
2018-07-29T00:03:35.926Z,91.70
2018-07-29T00:06:04.468Z,92.00
2018-07-29T00:08:32.949Z,91.70
2018-07-29T00:11:01.469Z,90.00
2018-07-29T00:13:29.909Z,89.60
2018-07-29T00:15:58.341Z,89.70
2018-07-29T00:18:26.741Z,90.00
2018-07-29T00:20:55.238Z,91.10
2018-07-29T00:23:23.795Z,92.10
2018-07-29T00:25:52.294Z,93.20
2018-07-29T00:28:20.804Z,94.20
2018-07-29T00:30:49.350Z,94.70
2018-07-29T00:33:17.854Z,95.20
2018-07-29T00:35:46.256Z,95.00
2018-07-29T00:38:14.688Z,94.00
2018-07-29T00:40:43.133Z,93.40
2018-07-29T00:43:11.526Z,94.00
2018-07-29T00:45:39.998Z,94.60
2018-07-29T00:48:08.409Z,94.80
2018-07-29T00:50:36.926Z,95.70
2018-07-29T00:53:05.894Z,96.10
2018-07-29T00:55:34.434Z,95.70
2018-07-29T00:58:02.923Z,96.00
2018-07-29T01:00:31.356Z,96.30
2018-07-29T01:02:59.807Z,96.20
2018-07-29T01:05:28.255Z,96.10
2018-07-29T01:07:56.708Z,95.70
2018-07-29T01:10:25.112Z,96.10
2018-07-29T01:12:53.574Z,96.40
2018-07-29T01:15:21.981Z,96.60
2018-07-29T01:17:51.988Z,96.60
2018-07-29T01:20:20.452Z,96.40
2018-07-29T01:22:48.924Z,96.90
2018-07-29T01:25:17.383Z,97.20
2018-07-29T01:27:45.871Z,98.30
2018-07-29T01:30:14.282Z,99.40
2018-07-29T01:32:42.746Z,99.80
2018-07-29T01:35:11.260Z,99.80
2018-07-29T01:37:39.720Z,99.80
2018-07-29T01:40:08.218Z,99.80
2018-07-29T01:42:36.718Z,99.80
2018-07-29T01:45:05.347Z,99.80
2018-07-29T01:47:33.769Z,99.80
2018-07-29T01:50:02.193Z,99.80
2018-07-29T01:52:30.669Z,99.80
2018-07-29T01:54:59.102Z,99.80
2018-07-29T01:57:27.560Z,99.80
2018-07-29T01:59:55.966Z,99.80
2018-07-29T02:02:24.409Z,99.80
2018-07-29T02:04:52.861Z,99.80
2018-07-29T02:07:21.560Z,99.80
2018-07-29T02:09:50.033Z,99.60
2018-07-29T02:12:18.508Z,99.40
2018-07-29T02:14:47.041Z,99.10
2018-07-29T02:17:15.448Z,99.10
2018-07-29T02:19:43.908Z,98.60
2018-07-29T02:22:12.361Z,97.90
2018-07-29T02:24:40.785Z,97.40
2018-07-29T02:27:09.267Z,97.70
2018-07-29T02:29:37.694Z,97.80
2018-07-29T02:32:06.156Z,97.80
2018-07-29T02:34:34.593Z,97.60
2018-07-29T02:37:03.060Z,97.50
2018-07-29T02:39:31.489Z,98.30
2018-07-29T02:41:59.967Z,98.40
2018-07-29T02:44:28.417Z,98.50
2018-07-29T02:46:56.891Z,98.30
2018-07-29T02:49:25.420Z,98.40
2018-07-29T02:51:53.866Z,98.30
2018-07-29T02:54:22.326Z,98.00
2018-07-29T02:56:50.776Z,98.00
2018-07-29T02:59:19.216Z,98.70
2018-07-29T03:01:47.569Z,99.00
2018-07-29T03:04:16.060Z,98.80
2018-07-29T03:06:44.474Z,98.70
2018-07-29T03:09:12.991Z,98.10
2018-07-29T03:11:41.676Z,98.30
2018-07-29T03:14:10.100Z,98.40
2018-07-29T03:16:38.549Z,98.40
2018-07-29T03:19:07.012Z,98.40
2018-07-29T03:21:35.437Z,98.80
2018-07-29T03:24:03.889Z,99.40
2018-07-29T03:26:32.361Z,99.80
2018-07-29T03:29:00.961Z,99.80
2018-07-29T03:31:29.391Z,99.80
2018-07-29T03:33:57.866Z,99.80
2018-07-29T03:36:26.328Z,99.80
2018-07-29T03:38:54.770Z,99.80
2018-07-29T03:41:23.213Z,99.80
2018-07-29T03:43:51.724Z,99.80
2018-07-29T03:46:20.893Z,99.80
2018-07-29T03:48:49.286Z,99.80
2018-07-29T03:51:17.753Z,99.80
2018-07-29T03:53:46.185Z,99.80
2018-07-29T03:56:14.654Z,99.80
2018-07-29T03:58:43.096Z,99.80
2018-07-29T04:01:11.539Z,99.80
2018-07-29T04:03:39.932Z,99.80
2018-07-29T04:06:08.625Z,99.80
2018-07-29T04:08:37.137Z,99.80
2018-07-29T04:11:05.554Z,99.80
2018-07-29T04:13:33.993Z,99.80
2018-07-29T04:16:02.397Z,99.80
2018-07-29T04:18:30.892Z,99.80
2018-07-29T04:20:59.319Z,99.80
2018-07-29T04:23:27.789Z,99.80
2018-07-29T04:25:56.262Z,99.80
2018-07-29T04:28:24.689Z,99.80
2018-07-29T04:30:53.122Z,99.80
2018-07-29T04:33:21.543Z,99.80
2018-07-29T04:35:49.947Z,99.80
2018-07-29T04:43:53.470Z,99.50
2018-07-29T04:46:21.906Z,99.20
2018-07-29T04:48:50.326Z,99.80
2018-07-29T04:51:18.824Z,99.80
2018-07-29T04:53:47.174Z,99.20
2018-07-29T04:56:15.596Z,98.80
2018-07-29T04:58:44.025Z,99.00
2018-07-29T05:01:12.547Z,99.20
2018-07-29T05:03:41.241Z,99.50
2018-07-29T05:06:09.699Z,99.80
2018-07-29T05:08:38.076Z,99.80
2018-07-29T05:11:06.665Z,99.80
2018-07-29T05:13:35.105Z,99.70
2018-07-29T05:18:31.724Z,99.40
2018-07-29T05:21:00.221Z,99.00
2018-07-29T05:23:28.673Z,98.90
2018-07-29T05:25:57.230Z,99.00
2018-07-29T05:28:25.625Z,98.90
2018-07-29T05:30:54.060Z,98.50
2018-07-29T05:33:22.443Z,98.50
2018-07-29T05:35:50.948Z,97.60
2018-07-29T05:38:19.382Z,97.70
2018-07-29T05:40:47.911Z,97.70
2018-07-29T05:43:16.372Z,96.90
2018-07-29T05:45:44.778Z,96.80
2018-07-29T05:48:13.264Z,96.50
2018-07-29T05:50:41.769Z,96.60
2018-07-29T05:53:10.218Z,97.10
2018-07-29T05:55:38.781Z,96.80
2018-07-29T05:58:07.883Z,96.70
2018-07-29T06:00:39.466Z,96.30
2018-07-29T06:03:08.049Z,95.10
2018-07-29T06:05:36.540Z,94.20
2018-07-29T06:08:05.040Z,94.00
2018-07-29T06:10:33.453Z,93.50
2018-07-29T06:13:01.874Z,92.90
2018-07-29T06:15:30.277Z,92.70
2018-07-29T06:17:58.731Z,91.80
2018-07-29T06:20:27.179Z,90.80
2018-07-29T06:22:55.743Z,91.20
2018-07-29T06:25:24.157Z,91.70
2018-07-29T06:27:52.646Z,91.10
2018-07-29T06:30:21.061Z,90.40
2018-07-29T06:32:49.560Z,89.40
2018-07-29T06:35:18.932Z,88.90
2018-07-29T06:37:47.340Z,88.60
2018-07-29T06:40:15.861Z,88.90
2018-07-29T06:42:44.375Z,88.70
2018-07-29T06:45:12.868Z,87.20
2018-07-29T06:47:41.363Z,86.70
2018-07-29T06:50:09.932Z,87.60
2018-07-29T06:52:38.458Z,86.50
2018-07-29T06:55:06.908Z,85.40
2018-07-29T06:57:35.317Z,84.70
2018-07-29T07:00:05.539Z,85.10
2018-07-29T07:02:34.082Z,84.30
2018-07-29T07:05:02.576Z,83.60
2018-07-29T07:07:31.311Z,83.50
2018-07-29T07:10:00.174Z,81.80
2018-07-29T07:12:32.137Z,80.10
2018-07-29T07:15:16.655Z,79.20
2018-07-29T07:17:51.310Z,80.30
2018-07-29T07:20:20.094Z,78.60
2018-07-29T07:22:49.611Z,78.40
2018-07-29T07:25:18.354Z,77.70
2018-07-29T07:27:47.068Z,79.00
2018-07-29T07:30:23.134Z,78.40
2018-07-29T07:32:58.134Z,78.30
2018-07-29T07:38:22.637Z,76.90
2018-07-29T07:40:51.261Z,78.50
2018-07-29T07:43:20.111Z,78.20
2018-07-29T07:45:48.612Z,77.50
2018-07-29T07:48:17.328Z,77.70
2018-07-29T07:50:45.942Z,77.70
2018-07-29T07:53:16.574Z,76.80
2018-07-29T07:55:45.026Z,75.80
2018-07-29T07:58:13.531Z,75.60
2018-07-29T08:00:42.216Z,74.40
2018-07-29T08:03:10.828Z,73.90
2018-07-29T08:06:45.473Z,74.40
2018-07-29T08:09:19.617Z,73.90
2018-07-29T08:11:48.871Z,73.90
2018-07-29T08:14:28.633Z,72.50
2018-07-29T08:23:35.024Z,69.50
2018-07-29T08:26:14.744Z,70.20
2018-07-29T08:28:43.992Z,68.20
2018-07-29T08:31:12.558Z,68.70
2018-07-29T08:33:41.417Z,67.30
2018-07-29T08:36:11.845Z,65.80
2018-07-29T08:38:40.322Z,66.20
2018-07-29T08:41:08.773Z,65.70
2018-07-29T08:43:37.467Z,66.30
2018-07-29T08:46:06.874Z,65.70
2018-07-29T08:48:38.179Z,64.30
2018-07-29T08:51:06.938Z,63.90
2018-07-29T08:53:36.598Z,64.40
2018-07-29T08:56:05.424Z,63.80
2018-07-29T08:58:33.939Z,64.10
2018-07-29T09:01:02.734Z,63.80
2018-07-29T09:03:31.345Z,65.00
2018-07-29T09:06:00.270Z,64.70
2018-07-29T09:08:29.098Z,64.90
2018-07-29T09:10:58.864Z,64.50
2018-07-29T09:13:35.953Z,63.60
2018-07-29T09:16:04.977Z,62.40
2018-07-29T09:18:33.453Z,63.40
2018-07-29T09:21:01.887Z,63.10
2018-07-29T09:23:30.335Z,62.20
2018-07-29T09:25:58.869Z,61.80
2018-07-29T09:30:55.700Z,60.40
2018-07-29T09:33:24.213Z,59.80
2018-07-29T09:35:52.899Z,58.90
2018-07-29T09:38:21.629Z,58.80
2018-07-29T09:40:50.358Z,57.60
2018-07-29T09:45:32.629Z,57.60
2018-07-29T09:48:03.210Z,57.00
2018-07-29T10:01:17.042Z,57.00
2018-07-29T10:03:45.678Z,57.20
2018-07-29T10:06:23.598Z,56.20
2018-07-29T10:09:13.219Z,55.60
2018-07-29T10:11:41.837Z,55.30
2018-07-29T10:14:10.484Z,55.10
2018-07-29T10:16:38.967Z,54.60
2018-07-29T10:19:07.566Z,53.40
2018-07-29T10:21:36.197Z,54.60
2018-07-29T10:24:04.799Z,55.10
2018-07-29T10:31:29.772Z,54.60
2018-07-29T10:33:58.605Z,54.10
2018-07-29T10:36:27.299Z,55.70
2018-07-29T10:38:55.868Z,55.30
2018-07-29T10:41:24.354Z,53.70
2018-07-29T10:43:52.816Z,52.60
2018-07-29T10:46:21.291Z,52.20
2018-07-29T10:48:49.729Z,51.10
2018-07-29T10:51:18.115Z,50.90
2018-07-29T10:53:46.832Z,50.90
2018-07-29T10:56:17.017Z,51.20
2018-07-29T10:58:45.548Z,50.20
2018-07-29T11:01:14.014Z,52.20
2018-07-29T11:03:42.613Z,49.80
2018-07-29T11:06:11.022Z,49.90
2018-07-29T11:08:39.671Z,48.60
2018-07-29T11:11:08.293Z,50.30
2018-07-29T11:13:38.050Z,50.90
2018-07-29T11:16:12.237Z,50.50
2018-07-29T11:18:40.893Z,50.20
2018-07-29T11:21:09.555Z,49.90
2018-07-29T11:23:38.358Z,50.40
2018-07-29T11:26:07.068Z,48.70
2018-07-29T11:28:35.646Z,48.10
2018-07-29T11:31:04.130Z,48.90
2018-07-29T11:36:13.714Z,48.00
2018-07-29T11:38:44.817Z,48.60
2018-07-29T11:41:13.313Z,47.90
2018-07-29T11:43:42.564Z,49.00
2018-07-29T11:46:11.824Z,49.80
2018-07-29T11:48:40.297Z,48.90
2018-07-29T11:51:09.394Z,48.70
2018-07-29T11:53:39.311Z,48.30
2018-07-29T11:56:08.310Z,47.90
2018-07-29T11:58:36.872Z,46.60
2018-07-29T12:01:05.408Z,47.00
2018-07-29T12:03:33.927Z,45.70
2018-07-29T12:06:02.461Z,46.00
2018-07-29T12:08:30.918Z,47.10
2018-07-29T12:10:59.387Z,48.10
2018-07-29T12:13:28.613Z,48.40
2018-07-29T12:15:56.991Z,45.50
2018-07-29T12:18:25.589Z,42.20
2018-07-29T12:20:54.265Z,39.60
2018-07-29T12:23:22.703Z,38.20
2018-07-29T12:25:51.204Z,37.00
2018-07-29T12:28:19.711Z,38.20
2018-07-29T12:30:48.198Z,38.30
2018-07-29T12:33:18.293Z,39.30
2018-07-29T12:35:46.698Z,40.50
2018-07-29T12:38:15.238Z,42.00
2018-07-29T12:40:43.627Z,41.70
2018-07-29T12:43:12.122Z,41.00
2018-07-29T12:45:40.563Z,38.50
2018-07-29T12:48:09.059Z,34.90
2018-07-29T12:50:37.474Z,33.90
2018-07-29T12:53:06.454Z,32.90
2018-07-29T12:55:35.203Z,33.70
2018-07-29T12:58:04.043Z,35.30
2018-07-29T13:00:32.471Z,35.80
2018-07-29T13:03:00.914Z,35.20
2018-07-29T13:05:29.437Z,34.60
2018-07-29T13:07:58.978Z,35.80
2018-07-29T13:10:27.451Z,37.00
2018-07-29T13:12:55.921Z,36.60
2018-07-29T13:15:24.372Z,36.40
2018-07-29T13:17:53.029Z,35.70
2018-07-29T13:20:21.468Z,34.70
2018-07-29T13:22:49.935Z,32.20
2018-07-29T13:25:18.538Z,30.30
2018-07-29T13:27:46.977Z,27.10
2018-07-29T13:30:15.505Z,26.30
2018-07-29T13:32:43.972Z,26.20
2018-07-29T13:35:12.437Z,24.60
2018-07-29T13:37:40.897Z,25.20
2018-07-29T13:40:09.678Z,23.70
2018-07-29T13:42:38.292Z,23.50
2018-07-29T13:45:08.914Z,24.40
2018-07-29T13:47:37.497Z,26.00
2018-07-29T13:50:07.783Z,25.90
2018-07-29T13:52:36.248Z,26.70
2018-07-29T13:55:05.531Z,27.80
2018-07-29T13:57:33.998Z,28.80
2018-07-29T14:00:02.452Z,29.60
2018-07-29T14:02:30.960Z,30.40
2018-07-29T14:04:59.476Z,31.20
2018-07-29T14:07:27.890Z,32.40
2018-07-29T14:09:56.355Z,33.60
2018-07-29T14:12:24.878Z,33.00
2018-07-29T14:14:53.340Z,31.10
2018-07-29T14:17:22.685Z,29.50
2018-07-29T14:19:51.089Z,28.90
2018-07-29T14:22:19.550Z,30.40
2018-07-29T14:24:48.050Z,31.30
2018-07-29T14:27:16.517Z,30.70
2018-07-29T14:29:45.042Z,31.70
2018-07-29T14:32:13.493Z,30.60
2018-07-29T14:34:41.994Z,32.50
2018-07-29T14:37:10.436Z,35.40
2018-07-29T14:39:38.868Z,35.90
2018-07-29T14:42:07.614Z,35.80
2018-07-29T14:44:36.022Z,35.10
2018-07-29T14:47:05.514Z,34.90
2018-07-29T14:49:34.001Z,34.10
2018-07-29T14:52:02.540Z,33.60
2018-07-29T14:54:30.988Z,33.30
2018-07-29T14:56:59.642Z,32.90
2018-07-29T14:59:28.095Z,33.70
2018-07-29T15:01:56.576Z,33.50
2018-07-29T15:04:28.601Z,34.10
2018-07-29T15:06:57.162Z,33.50
2018-07-29T15:09:25.556Z,31.90
2018-07-29T15:11:54.033Z,32.90
2018-07-29T15:14:22.558Z,32.40
2018-07-29T15:16:50.977Z,32.20
2018-07-29T15:19:19.624Z,31.90
2018-07-29T15:24:31.056Z,31.80
2018-07-29T15:26:59.501Z,31.80
2018-07-29T15:29:28.031Z,32.70
2018-07-29T15:31:56.621Z,34.00
2018-07-29T15:34:25.038Z,34.90
2018-07-29T15:36:53.528Z,35.50
2018-07-29T15:39:21.981Z,35.30
2018-07-29T15:41:50.447Z,35.50
2018-07-29T15:44:19.040Z,35.60
2018-07-29T15:46:47.536Z,34.70
2018-07-29T15:49:16.654Z,35.10
2018-07-29T15:51:45.201Z,35.80
2018-07-29T15:54:13.626Z,36.70
2018-07-29T15:56:42.096Z,37.20
2018-07-29T15:59:10.557Z,36.60
2018-07-29T16:01:39.026Z,38.10
2018-07-29T16:04:07.486Z,37.10
2018-07-29T16:06:35.989Z,37.50
2018-07-29T16:09:06.922Z,37.40
2018-07-29T16:11:35.467Z,36.60
2018-07-29T16:14:04.637Z,36.70
2018-07-29T16:16:33.050Z,38.10
2018-07-29T16:19:01.546Z,37.40
2018-07-29T16:21:30.175Z,38.40
2018-07-29T16:23:58.743Z,37.70
2018-07-29T16:26:27.241Z,37.90
2018-07-29T16:28:55.951Z,37.00
2018-07-29T16:31:24.462Z,35.70
2018-07-29T16:33:52.957Z,35.50
2018-07-29T16:36:21.453Z,36.40
2018-07-29T16:38:49.808Z,37.00
2018-07-29T16:41:18.238Z,37.10
2018-07-29T16:46:14.776Z,36.70
2018-07-29T16:48:43.229Z,37.00
2018-07-29T16:51:11.686Z,37.60
2018-07-29T16:53:40.188Z,35.80
2018-07-29T16:56:09.091Z,36.50
2018-07-29T16:58:37.633Z,36.30
2018-07-29T17:01:06.161Z,37.70
2018-07-29T17:03:34.685Z,38.00
2018-07-29T17:06:03.112Z,38.50
2018-07-29T17:08:31.608Z,38.20
2018-07-29T17:11:00.068Z,39.10
2018-07-29T17:13:28.500Z,37.60
2018-07-29T17:15:56.947Z,37.40
2018-07-29T17:18:25.443Z,37.40
2018-07-29T17:20:54.007Z,38.30
2018-07-29T17:23:22.472Z,38.50
2018-07-29T17:25:50.944Z,39.30
2018-07-29T17:28:19.403Z,41.00
2018-07-29T17:30:47.920Z,40.40
2018-07-29T17:33:16.368Z,39.10
2018-07-29T17:35:44.804Z,39.70
2018-07-29T17:38:13.212Z,39.60
2018-07-29T17:45:38.701Z,41.30
2018-07-29T17:48:07.173Z,41.40
2018-07-29T17:50:35.648Z,42.00
2018-07-29T17:53:04.051Z,42.80
2018-07-29T17:55:32.468Z,42.90
2018-07-29T17:58:00.911Z,43.70
2018-07-29T18:00:29.408Z,44.40
2018-07-29T18:02:57.821Z,44.50
2018-07-29T18:05:26.269Z,44.10
2018-07-29T18:07:54.666Z,43.30
2018-07-29T18:10:23.104Z,43.30
2018-07-29T18:12:51.610Z,43.00
2018-07-29T18:15:20.097Z,43.40
2018-07-29T18:17:49.481Z,43.70
2018-07-29T18:20:17.885Z,44.30
2018-07-29T18:22:46.547Z,45.10
2018-07-29T18:25:15.004Z,45.20
2018-07-29T18:27:43.809Z,44.60
2018-07-29T18:30:12.374Z,44.60
2018-07-29T18:32:41.010Z,46.10
2018-07-29T18:35:09.610Z,46.70
2018-07-29T18:37:38.389Z,46.90
2018-07-29T18:40:07.006Z,48.40
2018-07-29T18:42:35.479Z,48.20
2018-07-29T18:45:03.996Z,48.10
2018-07-29T18:47:32.620Z,49.40
2018-07-29T18:50:01.037Z,48.90
2018-07-29T18:52:29.488Z,49.80
2018-07-29T18:54:58.029Z,50.30
2018-07-29T18:57:26.503Z,50.90
2018-07-29T18:59:55.430Z,52.20
2018-07-29T19:02:23.993Z,52.60
2018-07-29T19:04:52.437Z,53.00
2018-07-29T19:07:20.876Z,53.80
2018-07-29T19:09:49.874Z,53.20
2018-07-29T19:14:59.965Z,53.30
2018-07-29T19:17:28.425Z,53.10
2018-07-29T19:19:56.872Z,53.10
2018-07-29T19:22:25.700Z,53.70
2018-07-29T19:24:54.129Z,54.20
2018-07-29T19:27:22.563Z,54.10
2018-07-29T19:29:50.980Z,54.50
2018-07-29T19:32:20.196Z,54.60
2018-07-29T19:34:49.270Z,55.30
2018-07-29T19:37:17.709Z,56.10
2018-07-29T19:39:46.268Z,56.00
2018-07-29T19:42:14.756Z,55.20
2018-07-29T19:44:43.802Z,55.70
2018-07-29T19:47:13.296Z,55.80
2018-07-29T19:49:41.723Z,55.30
2018-07-29T19:52:11.369Z,55.90
2018-07-29T19:54:39.808Z,56.30
2018-07-29T19:57:24.761Z,56.60
2018-07-29T19:59:58.182Z,57.20
2018-07-29T20:12:06.040Z,58.10
2018-07-29T21:13:19.488Z,63.90
2018-07-29T21:15:48.438Z,64.20
2018-07-29T21:18:17.188Z,64.50
2018-07-29T21:20:45.778Z,64.80
2018-07-29T21:23:14.399Z,64.50
2018-07-29T21:25:42.930Z,64.30
2018-07-29T21:28:12.009Z,64.70
2018-07-29T21:30:40.472Z,64.80
2018-07-29T21:33:08.964Z,64.70
2018-07-29T21:35:38.112Z,64.30
2018-07-29T21:38:06.695Z,65.20
2018-07-29T21:40:35.343Z,63.70
2018-07-29T21:43:03.967Z,63.80
2018-07-29T21:45:32.477Z,63.20
2018-07-29T21:48:02.088Z,62.40
2018-07-29T21:50:30.722Z,62.70
2018-07-29T21:52:59.200Z,63.10
2018-07-29T21:55:28.216Z,63.70
2018-07-29T21:57:57.522Z,64.00
2018-07-29T22:00:26.047Z,64.10
2018-07-29T22:02:54.486Z,64.10
2018-07-29T22:05:22.996Z,64.20
2018-07-29T22:07:51.540Z,63.80
2018-07-29T22:10:20.885Z,63.30
2018-07-29T22:12:50.557Z,62.80
2018-07-29T22:15:19.099Z,62.50
2018-07-29T22:17:47.507Z,62.60
2018-07-29T22:20:16.834Z,63.20
2018-07-29T22:22:45.468Z,63.80
2018-07-29T22:25:19.324Z,64.50
2018-07-29T22:27:47.703Z,64.80
2018-07-29T22:30:21.675Z,65.70
2018-07-29T22:32:50.083Z,65.50
2018-07-29T22:35:23.060Z,65.90
2018-07-29T22:37:47.255Z,67.20
2018-07-29T22:40:15.623Z,67.20
2018-07-29T22:42:44.357Z,67.80
2018-07-29T22:45:12.806Z,68.10
2018-07-29T22:47:41.180Z,68.70
2018-07-29T22:50:09.644Z,68.50
2018-07-29T22:52:38.599Z,69.30
2018-07-29T22:57:35.175Z,69.80
2018-07-29T23:00:04.294Z,69.40
2018-07-29T23:02:32.803Z,69.40
2018-07-29T23:05:01.955Z,69.70
2018-07-29T23:07:33.481Z,70.20
2018-07-29T23:10:05.143Z,70.80
2018-07-29T23:12:34.122Z,70.90
2018-07-29T23:15:02.704Z,70.80
2018-07-29T23:17:31.465Z,70.70
2018-07-29T23:19:59.869Z,70.60
2018-07-29T23:22:29.748Z,70.40
2018-07-29T23:24:59.077Z,70.50
2018-07-29T23:27:27.525Z,70.50
2018-07-29T23:29:56.049Z,70.90
2018-07-29T23:32:24.540Z,70.70
2018-07-29T23:34:53.042Z,71.00
2018-07-29T23:37:21.529Z,71.80
2018-07-29T23:39:50.029Z,71.70
2018-07-29T23:42:18.417Z,71.60
2018-07-29T23:44:47.513Z,72.20
2018-07-29T23:47:16.445Z,72.90
2018-07-29T23:49:46.309Z,73.70
2018-07-29T23:52:15.840Z,73.50
2018-07-29T23:54:45.824Z,74.30
2018-07-29T23:57:14.295Z,74.60
2018-07-29T23:59:42.813Z,74.50
